Time;durP1;ratioP1;P1;durP2;ratioP2;P2;SDS_P1;SDS_P2;PMS_P1;PMS_P2;Temp;Humidity;BMP_temperature;BMP_pressure;BME280_temperature;BME280_humidity;BME280_pressure;Samples;Min_cycle;Max_cycle;Signal;HPM_P1;HPM_P2
2023/03/27 00:00:22;;;;;;;0.30;0.30;;;0.70;99.90;;;;;;5016209;28;20030;-75
2023/03/27 00:02:48;;;;;;;0.20;0.20;;;0.70;99.90;;;;;;5016516;28;20018;-75
2023/03/27 00:05:15;;;;;;;0.30;0.30;;;0.60;99.90;;;;;;5015970;28;20523;-75
2023/03/27 00:07:41;;;;;;;0.20;0.20;;;0.70;99.90;;;;;;5015900;28;20026;-75
2023/03/27 00:10:08;;;;;;;0.20;0.20;;;0.70;99.90;;;;;;4998686;28;20396;-75
2023/03/27 00:12:37;;;;;;;0.20;0.20;;;0.80;99.90;;;;;;4998526;28;20030;-75
2023/03/27 00:15:04;;;;;;;0.20;0.20;;;0.90;99.90;;;;;;5016749;28;20022;-75
2023/03/27 00:17:29;;;;;;;0.20;0.20;;;0.90;99.90;;;;;;5015694;28;20037;-75
2023/03/27 00:19:55;;;;;;;0.20;0.20;;;0.90;99.90;;;;;;5016084;28;20034;-75
2023/03/27 00:22:20;;;;;;;0.20;0.20;;;0.80;99.90;;;;;;4997943;28;20033;-75
2023/03/27 00:24:46;;;;;;;0.20;0.20;;;0.80;99.90;;;;;;5015784;28;20399;-75
2023/03/27 00:27:11;;;;;;;0.22;0.22;;;0.70;99.90;;;;;;5016014;28;20026;-75
2023/03/27 00:29:38;;;;;;;0.20;0.20;;;0.60;99.90;;;;;;4997764;28;20022;-75
2023/03/27 00:32:04;;;;;;;0.30;0.30;;;0.60;99.90;;;;;;4998335;28;20040;-75
2023/03/27 00:34:30;;;;;;;0.20;0.20;;;0.50;99.90;;;;;;4996666;28;20116;-75
2023/03/27 00:36:56;;;;;;;0.20;0.20;;;0.40;99.90;;;;;;5015996;28;20030;-75
2023/03/27 00:39:22;;;;;;;0.20;0.20;;;0.40;99.90;;;;;;5015766;28;20022;-75
2023/03/27 00:41:48;;;;;;;0.30;0.30;;;0.40;99.90;;;;;;4997990;28;20022;-75
2023/03/27 00:44:33;;;;;;;0.20;0.20;;;0.20;99.90;;;;;;5015064;28;20029;-75
2023/03/27 00:47:01;;;;;;;0.20;0.20;;;0.20;99.90;;;;;;5015589;28;20136;-75
2023/03/27 00:49:33;;;;;;;0.20;0.20;;;0.20;99.90;;;;;;5015689;28;20033;-75
2023/03/27 00:52:01;;;;;;;0.20;0.20;;;0.20;99.90;;;;;;5015493;28;20030;-75
2023/03/27 00:54:30;;;;;;;0.20;0.20;;;0.30;99.90;;;;;;5082131;23;20045;-75
2023/03/27 00:56:59;;;;;;;0.20;0.20;;;0.50;99.90;;;;;;5035298;28;20386;-74
2023/03/27 00:59:29;;;;;;;0.28;0.28;;;0.60;99.90;;;;;;5035488;28;20375;-75
2023/03/27 01:01:56;;;;;;;0.20;0.20;;;0.70;99.90;;;;;;5035191;28;20049;-75
2023/03/27 01:04:22;;;;;;;0.20;0.20;;;0.90;99.90;;;;;;5034814;28;20520;-75
2023/03/27 01:06:51;;;;;;;0.20;0.20;;;1.20;99.90;;;;;;5034471;28;20021;-75
2023/03/27 01:09:17;;;;;;;0.20;0.20;;;1.30;99.90;;;;;;5017127;28;20029;-75
2023/03/27 01:11:55;;;;;;;0.20;0.20;;;1.30;99.90;;;;;;5016930;28;20167;-75
2023/03/27 01:14:33;;;;;;;0.20;0.20;;;1.20;99.90;;;;;;5016890;28;20036;-75
2023/03/27 01:17:30;;;;;;;0.20;0.20;;;1.10;99.90;;;;;;5017106;28;20063;-75
2023/03/27 01:19:58;;;;;;;0.17;0.17;;;0.90;99.90;;;;;;5034380;28;20040;-75
2023/03/27 01:22:58;;;;;;;0.20;0.20;;;0.80;99.90;;;;;;5016883;28;20052;-75
2023/03/27 01:25:43;;;;;;;0.30;0.30;;;0.70;99.90;;;;;;5034959;28;20031;-75
2023/03/27 01:28:09;;;;;;;0.25;0.25;;;0.50;99.90;;;;;;5034718;28;20503;-75
2023/03/27 01:30:39;;;;;;;0.20;0.20;;;0.50;99.90;;;;;;5034403;28;20109;-75
2023/03/27 01:33:26;;;;;;;0.20;0.20;;;0.50;99.90;;;;;;5033647;28;20021;-75
2023/03/27 01:36:12;;;;;;;0.20;0.20;;;0.40;99.90;;;;;;5034509;28;20032;-75
2023/03/27 01:39:04;;;;;;;0.20;0.20;;;0.40;99.90;;;;;;5016568;28;20098;-75
2023/03/27 01:41:44;;;;;;;0.20;0.20;;;0.30;99.90;;;;;;5016030;28;20087;-75
2023/03/27 01:44:27;;;;;;;0.20;0.20;;;0.20;99.90;;;;;;5033604;28;20029;-75
2023/03/27 01:47:06;;;;;;;0.20;0.20;;;0.10;99.90;;;;;;5034310;28;20040;-75
2023/03/27 01:49:50;;;;;;;0.20;0.20;;;0.00;99.90;;;;;;5033752;28;20018;-75
2023/03/27 01:52:19;;;;;;;;;;;0.00;99.90;;;;;;5034390;28;20028;-75
2023/03/27 01:54:53;;;;;;;0.20;0.20;;;0.00;99.90;;;;;;5016208;28;19912;-75
2023/03/27 01:57:23;;;;;;;0.20;0.20;;;-0.10;99.90;;;;;;5016567;28;20487;-75
2023/03/27 01:59:55;;;;;;;0.10;0.10;;;-0.10;99.90;;;;;;5016769;28;20061;-75
2023/03/27 02:02:32;;;;;;;0.30;0.30;;;-0.10;99.90;;;;;;5015508;28;20029;-75
2023/03/27 02:05:06;;;;;;;0.17;0.17;;;-0.10;99.90;;;;;;5033702;28;20030;-75
2023/03/27 02:07:37;;;;;;;0.15;0.15;;;-0.10;99.90;;;;;;5034166;28;20391;-75
2023/03/27 02:10:07;;;;;;;0.20;0.20;;;0.10;99.90;;;;;;5034010;28;20486;-75
2023/03/27 02:12:38;;;;;;;0.20;0.20;;;0.30;99.90;;;;;;5033911;28;20030;-75
2023/03/27 02:15:18;;;;;;;0.20;0.20;;;0.30;99.90;;;;;;5033323;28;20506;-75
2023/03/27 02:17:51;;;;;;;0.20;0.20;;;0.40;99.90;;;;;;5016016;28;20026;-75
2023/03/27 02:20:17;;;;;;;0.17;0.17;;;0.50;99.90;;;;;;5033630;28;20021;-75
2023/03/27 02:22:47;;;;;;;0.20;0.20;;;0.60;99.90;;;;;;5032813;28;20521;-75
2023/03/27 02:25:46;;;;;;;0.25;0.25;;;0.60;99.90;;;;;;5033589;28;20395;-75
2023/03/27 02:28:30;;;;;;;0.20;0.20;;;0.50;99.90;;;;;;5033314;28;20026;-75
2023/03/27 02:31:01;;;;;;;0.20;0.20;;;0.40;99.90;;;;;;5033529;28;20088;-75
2023/03/27 02:33:53;;;;;;;0.10;0.10;;;0.30;99.90;;;;;;5033405;28;20475;-75
2023/03/27 02:36:34;;;;;;;0.10;0.10;;;0.20;99.90;;;;;;5014985;28;20021;-75
2023/03/27 02:39:22;;;;;;;0.20;0.20;;;0.30;99.90;;;;;;5033406;28;20025;-75
2023/03/27 02:41:51;;;;;;;0.20;0.20;;;0.30;99.90;;;;;;5015941;28;20478;-75
2023/03/27 02:44:37;;;;;;;0.20;0.20;;;0.20;99.90;;;;;;5033420;28;20072;-75
2023/03/27 02:47:15;;;;;;;0.20;0.20;;;0.10;99.90;;;;;;5015508;28;20018;-75
2023/03/27 02:49:45;;;;;;;0.20;0.20;;;0.10;99.90;;;;;;5032535;28;20510;-75
2023/03/27 02:52:26;;;;;;;0.20;0.20;;;0.00;99.90;;;;;;5015549;28;20540;-75
2023/03/27 02:55:05;;;;;;;0.20;0.20;;;0.00;99.90;;;;;;5039431;23;20049;-75
2023/03/27 02:57:38;;;;;;;0.30;0.30;;;-0.10;99.90;;;;;;5032614;28;20041;-75
2023/03/27 03:00:18;;;;;;;0.20;0.20;;;-0.20;99.90;;;;;;5032768;28;20029;-75
2023/03/27 03:02:45;;;;;;;0.20;0.20;;;-0.30;99.90;;;;;;5032952;28;20491;-75
2023/03/27 03:05:20;;;;;;;0.20;0.20;;;-0.30;99.90;;;;;;5015307;28;20437;-75
2023/03/27 03:07:47;;;;;;;0.20;0.20;;;-0.40;99.90;;;;;;5015205;28;20486;-75
2023/03/27 03:10:16;;;;;;;0.20;0.20;;;-0.40;99.90;;;;;;5032622;28;20030;-75
2023/03/27 03:15:10;;;;;;;0.20;0.20;;;-0.40;99.90;;;;;;5095891;23;20127;-75
2023/03/27 03:17:36;;;;;;;0.17;0.17;;;-0.30;99.90;;;;;;5015298;28;20590;-75
2023/03/27 03:20:03;;;;;;;0.30;0.30;;;-0.20;99.90;;;;;;5015298;28;20120;-75
2023/03/27 03:22:30;;;;;;;0.20;0.20;;;0.00;99.90;;;;;;5014578;28;20033;-75
2023/03/27 03:24:56;;;;;;;0.20;0.20;;;0.20;99.90;;;;;;5014965;28;20406;-75
2023/03/27 03:27:22;;;;;;;0.20;0.20;;;0.30;99.90;;;;;;5015266;28;20047;-75
2023/03/27 03:29:47;;;;;;;0.20;0.20;;;0.40;99.90;;;;;;5032777;28;20125;-75
2023/03/27 03:32:13;;;;;;;0.28;0.28;;;0.50;99.90;;;;;;5032461;28;20108;-75
2023/03/27 03:34:45;;;;;;;0.20;0.20;;;0.50;99.90;;;;;;5002628;23;20051;-75
2023/03/27 03:37:22;;;;;;;0.20;0.20;;;0.50;99.90;;;;;;4992966;28;20011;-75
2023/03/27 03:40:11;;;;;;;0.20;0.20;;;0.50;99.90;;;;;;4993298;28;20024;-75
2023/03/27 03:42:44;;;;;;;0.20;0.20;;;0.50;99.90;;;;;;4982967;28;20105;-75
2023/03/27 03:45:10;;;;;;;0.13;0.13;;;0.50;99.90;;;;;;4973735;28;20045;-75
2023/03/27 03:47:35;;;;;;;0.20;0.20;;;0.40;99.90;;;;;;4973579;28;20485;-75
2023/03/27 03:50:01;;;;;;;0.20;0.20;;;0.30;99.90;;;;;;4973739;28;20026;-75
2023/03/27 03:52:26;;;;;;;0.20;0.20;;;0.20;99.90;;;;;;4973948;28;20489;-75
2023/03/27 03:54:55;;;;;;;0.30;0.30;;;0.20;99.90;;;;;;4972709;28;20030;-75
2023/03/27 03:57:20;;;;;;;0.20;0.20;;;0.00;99.90;;;;;;4973713;28;20030;-75
2023/03/27 03:59:46;;;;;;;0.20;0.20;;;0.10;99.90;;;;;;4973285;28;20042;-75
2023/03/27 04:02:26;;;;;;;0.20;0.20;;;0.30;99.90;;;;;;4972631;28;20031;-76
2023/03/27 04:04:58;;;;;;;0.20;0.20;;;0.50;99.90;;;;;;5033258;23;20069;-75
2023/03/27 04:07:30;;;;;;;0.20;0.20;;;0.60;99.90;;;;;;5032405;28;20042;-75
2023/03/27 04:09:57;;;;;;;0.20;0.20;;;0.60;99.90;;;;;;5018312;28;20028;-75
2023/03/27 04:12:22;;;;;;;0.20;0.20;;;0.70;99.90;;;;;;5018209;28;20036;-75
2023/03/27 04:14:48;;;;;;;0.20;0.20;;;0.70;99.90;;;;;;5035773;28;20104;-75
2023/03/27 04:17:13;;;;;;;0.20;0.20;;;0.80;99.90;;;;;;5035991;28;20033;-75
2023/03/27 04:19:40;;;;;;;0.30;0.30;;;0.80;99.90;;;;;;5035538;28;20026;-75
2023/03/27 04:22:06;;;;;;;0.30;0.30;;;0.80;99.90;;;;;;5035707;28;20437;-75
2023/03/27 04:24:32;;;;;;;0.10;0.10;;;0.80;99.90;;;;;;5035439;28;20021;-75
2023/03/27 04:27:00;;;;;;;0.10;0.10;;;0.80;99.90;;;;;;5035710;28;20021;-75
2023/03/27 04:29:29;;;;;;;0.10;0.10;;;0.80;99.90;;;;;;5018101;28;20022;-75
2023/03/27 04:31:56;;;;;;;0.17;0.17;;;1.00;99.90;;;;;;5036022;28;20022;-75
2023/03/27 04:34:21;;;;;;;0.30;0.30;;;1.10;99.90;;;;;;5034769;28;20156;-74
2023/03/27 04:36:49;;;;;;;0.30;0.30;;;1.30;99.90;;;;;;5035588;28;20100;-75
2023/03/27 04:39:16;;;;;;;0.20;0.20;;;1.30;99.90;;;;;;5035580;28;20060;-75
2023/03/27 04:41:47;;;;;;;0.13;0.13;;;1.30;99.90;;;;;;5035368;28;20036;-75
2023/03/27 04:44:13;;;;;;;0.20;0.20;;;1.30;99.90;;;;;;5017005;28;20025;-75
2023/03/27 04:46:40;;;;;;;0.30;0.30;;;1.30;99.90;;;;;;5035340;28;20025;-75
2023/03/27 04:49:05;;;;;;;0.10;0.10;;;1.30;99.90;;;;;;5035258;28;20021;-75
2023/03/27 04:51:31;;;;;;;0.20;0.20;;;1.20;99.90;;;;;;5035181;28;20034;-75
2023/03/27 04:53:56;;;;;;;0.20;0.20;;;1.20;99.90;;;;;;5017714;28;20033;-74
2023/03/27 04:56:22;;;;;;;0.10;0.10;;;1.10;99.90;;;;;;5034330;28;20048;-75
2023/03/27 04:58:48;;;;;;;0.20;0.20;;;1.00;99.90;;;;;;5017307;28;20033;-75
2023/03/27 05:01:14;;;;;;;0.20;0.20;;;1.00;99.90;;;;;;5034835;28;20033;-75
2023/03/27 05:03:42;;;;;;;0.20;0.20;;;0.80;99.90;;;;;;5034513;28;20033;-74
2023/03/27 05:06:08;;;;;;;0.20;0.20;;;0.70;99.90;;;;;;5017125;28;20029;-75
2023/03/27 05:08:34;;;;;;;0.20;0.20;;;0.70;99.90;;;;;;5034245;28;20021;-74
2023/03/27 05:11:00;;;;;;;0.20;0.20;;;0.60;99.90;;;;;;5016868;28;20109;-74
2023/03/27 05:13:28;;;;;;;0.20;0.20;;;0.60;99.90;;;;;;5034553;28;20552;-75
2023/03/27 05:15:53;;;;;;;0.20;0.20;;;0.70;99.90;;;;;;5034685;28;20060;-75
2023/03/27 05:18:19;;;;;;;0.10;0.10;;;0.60;99.90;;;;;;5034442;28;20053;-74
2023/03/27 05:20:47;;;;;;;0.20;0.20;;;0.70;99.90;;;;;;5015788;28;20029;-74
2023/03/27 05:23:13;;;;;;;0.20;0.20;;;0.80;99.90;;;;;;5034398;28;20097;-74
2023/03/27 05:25:44;;;;;;;0.10;0.10;;;0.80;99.90;;;;;;5034680;28;20053;-74
2023/03/27 05:28:09;;;;;;;0.20;0.20;;;0.80;99.90;;;;;;5034900;28;20028;-74
2023/03/27 05:30:35;;;;;;;0.20;0.20;;;0.90;99.90;;;;;;5034211;28;20391;-74
2023/03/27 05:33:00;;;;;;;0.20;0.20;;;1.00;99.90;;;;;;5033451;28;20025;-74
2023/03/27 05:35:29;;;;;;;0.10;0.10;;;1.00;99.90;;;;;;5033908;28;20491;-74
2023/03/27 05:37:56;;;;;;;0.20;0.20;;;1.10;99.90;;;;;;5016430;28;20116;-74
2023/03/27 05:40:26;;;;;;;0.10;0.10;;;1.00;99.90;;;;;;5016477;28;20079;-74
2023/03/27 05:42:53;;;;;;;0.13;0.13;;;0.90;99.90;;;;;;5016531;28;20026;-74
2023/03/27 05:45:20;;;;;;;0.20;0.20;;;0.90;99.90;;;;;;5033536;28;20021;-74
2023/03/27 05:47:50;;;;;;;0.20;0.20;;;0.90;99.90;;;;;;5033832;28;20087;-73
2023/03/27 05:50:18;;;;;;;0.20;0.20;;;0.90;99.90;;;;;;5033776;28;20071;-74
2023/03/27 05:52:43;;;;;;;0.20;0.20;;;0.80;99.90;;;;;;5033699;28;20051;-74
2023/03/27 05:55:10;;;;;;;0.20;0.20;;;0.80;99.90;;;;;;5034073;28;20438;-74
2023/03/27 05:57:37;;;;;;;0.20;0.20;;;0.80;99.90;;;;;;5033439;28;20025;-74
2023/03/27 06:00:22;;;;;;;0.20;0.20;;;0.70;99.90;;;;;;5033160;28;20479;-74
2023/03/27 06:02:48;;;;;;;0.30;0.30;;;0.70;99.90;;;;;;5033498;28;20398;-74
2023/03/27 06:05:15;;;;;;;0.10;0.10;;;0.50;99.90;;;;;;5033524;28;20033;-74
2023/03/27 06:07:44;;;;;;;0.17;0.17;;;0.50;99.90;;;;;;5033554;28;20071;-74
2023/03/27 06:10:12;;;;;;;0.10;0.10;;;0.40;99.90;;;;;;5033205;28;20021;-74
2023/03/27 06:12:38;;;;;;;0.10;0.10;;;0.40;99.90;;;;;;5033594;28;20101;-74
2023/03/27 06:15:06;;;;;;;0.10;0.10;;;0.50;99.90;;;;;;5033107;28;20041;-74
2023/03/27 06:17:32;;;;;;;0.20;0.20;;;0.50;99.90;;;;;;5015765;28;20029;-75
2023/03/27 06:20:09;;;;;;;0.15;0.15;;;0.60;99.90;;;;;;5034033;28;20029;-75
2023/03/27 06:22:38;;;;;;;0.10;0.10;;;0.70;99.90;;;;;;5015464;28;20167;-74
2023/03/27 06:25:05;;;;;;;0.20;0.20;;;0.60;99.90;;;;;;5033478;28;20025;-75
2023/03/27 06:27:31;;;;;;;0.20;0.20;;;0.70;99.90;;;;;;5016039;28;20109;-74
2023/03/27 06:29:56;;;;;;;0.10;0.10;;;0.80;99.90;;;;;;5015906;28;20156;-75
2023/03/27 06:32:22;;;;;;;0.20;0.20;;;0.80;99.90;;;;;;5026211;28;20084;-74
2023/03/27 06:34:48;;;;;;;0.10;0.10;;;1.00;99.90;;;;;;5016267;28;20036;-74
2023/03/27 06:37:14;;;;;;;0.20;0.20;;;1.10;99.90;;;;;;5021991;28;20033;-72
2023/03/27 06:39:41;;;;;;;0.13;0.13;;;1.20;99.90;;;;;;5024107;28;20017;-75
2023/03/27 06:42:07;;;;;;;0.10;0.10;;;1.30;99.90;;;;;;5023305;28;20022;-73
2023/03/27 06:44:37;;;;;;;0.10;0.10;;;1.30;99.90;;;;;;5054561;23;20056;-75
2023/03/27 06:47:03;;;;;;;0.17;0.17;;;1.20;99.90;;;;;;5019628;28;20032;-74
2023/03/27 06:49:28;;;;;;;0.10;0.10;;;1.10;99.90;;;;;;5008070;28;20386;-74
2023/03/27 06:51:54;;;;;;;0.20;0.20;;;1.00;99.90;;;;;;5024748;28;20060;-76
2023/03/27 06:54:20;;;;;;;0.20;0.20;;;1.00;99.90;;;;;;5023016;28;20022;-77
2023/03/27 06:56:45;;;;;;;0.10;0.10;;;1.00;99.90;;;;;;5018060;28;20071;-77
2023/03/27 06:59:11;;;;;;;0.10;0.10;;;0.90;99.90;;;;;;5004110;28;20029;-77
2023/03/27 07:01:36;;;;;;;0.10;0.10;;;0.80;99.90;;;;;;5010214;28;20483;-77
2023/03/27 07:04:02;;;;;;;0.20;0.20;;;0.80;99.90;;;;;;5046703;23;20045;-77
2023/03/27 07:06:30;;;;;;;0.20;0.20;;;1.00;99.90;;;;;;5032820;28;20399;-77
2023/03/27 07:08:56;;;;;;;0.17;0.17;;;1.10;99.90;;;;;;5033544;28;20029;-77
2023/03/27 07:11:21;;;;;;;0.20;0.20;;;1.30;99.90;;;;;;5015780;28;20022;-77
2023/03/27 07:13:47;;;;;;;0.20;0.20;;;1.40;99.90;;;;;;5015880;28;20032;-77
2023/03/27 07:16:12;;;;;;;0.20;0.20;;;1.50;99.90;;;;;;5032820;28;20020;-77
2023/03/27 07:18:38;;;;;;;0.10;0.10;;;1.60;99.90;;;;;;5033632;28;20495;-77
2023/03/27 07:21:06;;;;;;;0.20;0.20;;;1.70;99.90;;;;;;5033385;28;20037;-77
2023/03/27 07:23:31;;;;;;;0.10;0.10;;;1.70;99.90;;;;;;5034112;28;20128;-77
2023/03/27 07:25:59;;;;;;;0.20;0.20;;;1.90;99.90;;;;;;5015586;28;20112;-77
2023/03/27 07:28:24;;;;;;;0.20;0.20;;;2.00;99.90;;;;;;5032892;28;20025;-77
2023/03/27 07:30:50;;;;;;;0.10;0.10;;;2.10;99.90;;;;;;5015580;28;20112;-77
2023/03/27 07:33:18;;;;;;;0.22;0.22;;;2.30;99.90;;;;;;5047760;23;20069;-77
2023/03/27 07:35:45;;;;;;;0.15;0.15;;;2.50;99.90;;;;;;5034922;28;20096;-77
2023/03/27 07:38:11;;;;;;;0.20;0.20;;;2.60;99.90;;;;;;5035345;28;20418;-77
2023/03/27 07:40:37;;;;;;;0.20;0.20;;;2.80;99.90;;;;;;5034027;28;20027;-77
2023/03/27 07:43:06;;;;;;;0.20;0.20;;;3.10;99.90;;;;;;5017333;28;20040;-77
2023/03/27 07:45:33;;;;;;;0.13;0.13;;;3.30;99.90;;;;;;5036804;28;20506;-77
2023/03/27 07:48:10;;;;;;;0.20;0.20;;;3.60;99.90;;;;;;5036512;28;20025;-77
2023/03/27 07:50:36;;;;;;;0.30;0.30;;;3.80;99.90;;;;;;5037040;28;20021;-77
2023/03/27 07:53:05;;;;;;;0.10;0.10;;;3.70;99.90;;;;;;5067644;23;20021;-77
2023/03/27 07:55:31;;;;;;;0.15;0.15;;;3.90;99.90;;;;;;5018796;28;20033;-77
2023/03/27 07:57:57;;;;;;;0.10;0.10;;;3.90;99.90;;;;;;5036696;28;20116;-77
2023/03/27 08:00:23;;;;;;;0.20;0.20;;;3.70;99.90;;;;;;5037956;28;20058;-77
2023/03/27 08:02:49;;;;;;;0.20;0.20;;;3.40;99.90;;;;;;5037385;28;20034;-77
2023/03/27 08:05:15;;;;;;;0.28;0.28;;;3.30;99.90;;;;;;5038501;28;20510;-77
2023/03/27 08:07:44;;;;;;;0.28;0.28;;;3.20;99.90;;;;;;5037602;28;20096;-77
2023/03/27 08:10:10;;;;;;;0.20;0.20;;;3.20;99.90;;;;;;5019749;28;20025;-77
2023/03/27 08:12:36;;;;;;;0.17;0.17;;;3.20;99.90;;;;;;5019365;28;20048;-77
2023/03/27 08:15:02;;;;;;;0.30;0.30;;;3.10;99.90;;;;;;5088361;23;20042;-77
2023/03/27 08:17:29;;;;;;;0.30;0.30;;;3.10;99.90;;;;;;5016365;28;20018;-76
2023/03/27 08:19:55;;;;;;;0.17;0.17;;;3.30;99.90;;;;;;5015436;28;20026;-76
2023/03/27 08:22:21;;;;;;;0.20;0.20;;;3.60;99.90;;;;;;5015736;28;20030;-76
2023/03/27 08:24:48;;;;;;;0.20;0.20;;;3.80;99.90;;;;;;5016177;28;20033;-76
2023/03/27 08:27:14;;;;;;;0.10;0.10;;;3.70;99.90;;;;;;5015482;28;20677;-75
2023/03/27 08:29:41;;;;;;;0.30;0.30;;;3.50;99.90;;;;;;5016442;28;20022;-77
2023/03/27 08:32:09;;;;;;;0.20;0.20;;;3.30;99.90;;;;;;4998356;28;20036;-76
2023/03/27 08:34:35;;;;;;;0.30;0.30;;;3.20;99.90;;;;;;5016235;28;20026;-77
2023/03/27 08:37:02;;;;;;;0.20;0.20;;;3.00;99.90;;;;;;5015497;28;20499;-76
2023/03/27 08:39:29;;;;;;;0.20;0.20;;;2.90;99.90;;;;;;5015745;28;20029;-76
2023/03/27 08:41:57;;;;;;;0.30;0.30;;;2.90;99.90;;;;;;4996212;28;20033;-77
2023/03/27 08:44:25;;;;;;;0.30;0.30;;;2.80;99.90;;;;;;4995994;28;20488;-76
2023/03/27 08:47:10;;;;;;;0.20;0.20;;;2.90;99.90;;;;;;4995829;28;20034;-77
2023/03/27 08:49:50;;;;;;;0.20;0.20;;;2.90;99.90;;;;;;5012067;28;20029;-77
2023/03/27 08:52:19;;;;;;;0.20;0.20;;;2.90;99.90;;;;;;5015734;28;20097;-77
2023/03/27 08:55:07;;;;;;;0.20;0.20;;;2.90;99.90;;;;;;4997186;28;20069;-77
2023/03/27 08:57:33;;;;;;;0.20;0.20;;;3.00;99.90;;;;;;4998372;28;20033;-77
2023/03/27 09:00:00;;;;;;;0.30;0.30;;;3.30;99.90;;;;;;5015522;28;20438;-77
2023/03/27 09:02:52;;;;;;;0.17;0.17;;;3.70;99.90;;;;;;5015198;28;20492;-77
2023/03/27 09:05:41;;;;;;;0.20;0.20;;;4.20;99.90;;;;;;4997954;28;20121;-77
2023/03/27 09:08:11;;;;;;;0.30;0.30;;;4.40;99.90;;;;;;5014941;28;20018;-76
2023/03/27 09:10:55;;;;;;;0.20;0.20;;;4.70;99.90;;;;;;5015392;28;20022;-77
2023/03/27 09:13:36;;;;;;;0.10;0.10;;;4.90;99.90;;;;;;5016425;28;20442;-77
2023/03/27 09:16:10;;;;;;;0.10;0.10;;;5.10;99.90;;;;;;5015527;28;20113;-76
2023/03/27 09:18:48;;;;;;;0.20;0.20;;;5.30;99.90;;;;;;5015155;28;20026;-76
2023/03/27 09:21:18;;;;;;;0.22;0.22;;;5.60;99.90;;;;;;5015267;28;20090;-77
2023/03/27 09:23:45;;;;;;;0.20;0.20;;;6.10;99.90;;;;;;5063206;23;20490;-76
2023/03/27 09:26:21;;;;;;;0.20;0.20;;;6.30;99.90;;;;;;5017239;28;20029;-76
2023/03/27 09:29:00;;;;;;;0.10;0.10;;;6.20;99.90;;;;;;5034735;28;20057;-77
2023/03/27 09:31:30;;;;;;;0.20;0.20;;;6.10;99.90;;;;;;5035599;28;20014;-77
2023/03/27 09:33:59;;;;;;;0.20;0.20;;;5.80;99.90;;;;;;5017288;28;20108;-77
2023/03/27 09:36:25;;;;;;;0.10;0.10;;;5.40;99.90;;;;;;5034168;28;20021;-77
2023/03/27 09:39:00;;;;;;;0.22;0.22;;;4.80;99.90;;;;;;5035070;28;20033;-77
2023/03/27 09:41:44;;;;;;;0.28;0.28;;;4.50;99.90;;;;;;5010370;28;20014;-77
2023/03/27 09:44:24;;;;;;;0.30;0.30;;;4.30;99.90;;;;;;5014898;28;20026;-77
2023/03/27 09:46:59;;;;;;;0.15;0.15;;;4.00;99.90;;;;;;5014731;28;20399;-77
2023/03/27 09:49:26;;;;;;;0.20;0.20;;;3.80;99.90;;;;;;5014321;28;20021;-77
2023/03/27 09:51:53;;;;;;;0.10;0.10;;;3.60;99.90;;;;;;5015679;28;20391;-76
2023/03/27 09:54:21;;;;;;;0.20;0.20;;;3.80;99.90;;;;;;5016928;28;20430;-77
2023/03/27 09:56:50;;;;;;;0.20;0.20;;;4.30;99.90;;;;;;5034897;28;20029;-77
2023/03/27 09:59:31;;;;;;;0.20;0.20;;;4.80;99.90;;;;;;5035451;28;20032;-77
2023/03/27 10:02:07;;;;;;;0.20;0.20;;;5.40;99.90;;;;;;5019734;28;20509;-77
2023/03/27 10:04:32;;;;;;;0.30;0.30;;;5.70;99.90;;;;;;5035618;28;20030;-77
2023/03/27 10:07:07;;;;;;;0.20;0.20;;;6.00;99.90;;;;;;5036995;28;20390;-77
2023/03/27 10:09:35;;;;;;;0.20;0.20;;;6.40;99.90;;;;;;5039185;28;20103;-78
2023/03/27 10:12:06;;;;;;;0.20;0.20;;;6.50;99.90;;;;;;5037464;28;20021;-78
2023/03/27 10:14:37;;;;;;;0.20;0.20;;;6.70;99.90;;;;;;5038759;28;20613;-77
2023/03/27 10:17:10;;;;;;;0.20;0.20;;;6.90;99.90;;;;;;5039677;28;20029;-77
2023/03/27 10:19:40;;;;;;;0.17;0.17;;;6.90;99.90;;;;;;5038081;28;20026;-76
2023/03/27 10:22:17;;;;;;;0.20;0.20;;;6.50;99.90;;;;;;5008364;28;20038;-76
2023/03/27 10:24:46;;;;;;;0.20;0.20;;;6.60;99.90;;;;;;5019596;28;20084;-76
2023/03/27 10:27:23;;;;;;;0.20;0.20;;;6.20;99.90;;;;;;5005998;28;20475;-76
2023/03/27 10:29:49;;;;;;;0.20;0.20;;;5.50;99.90;;;;;;4997082;28;20644;-76
2023/03/27 10:32:14;;;;;;;0.20;0.20;;;5.10;99.90;;;;;;5030679;28;20018;-76
2023/03/27 10:34:50;;;;;;;0.20;0.20;;;5.00;99.90;;;;;;5134719;23;20066;-76
2023/03/27 10:37:29;;;;;;;0.20;0.20;;;4.90;99.90;;;;;;4987019;28;20039;-77
2023/03/27 10:40:00;;;;;;;0.20;0.20;;;5.50;99.90;;;;;;4986698;28;20030;-77
2023/03/27 10:42:30;;;;;;;0.10;0.10;;;6.10;99.90;;;;;;4984339;28;20031;-77
2023/03/27 10:44:56;;;;;;;0.20;0.20;;;6.40;99.90;;;;;;4984254;28;20026;-77
2023/03/27 10:47:29;;;;;;;0.20;0.20;;;6.30;99.90;;;;;;4986290;28;20023;-76
2023/03/27 10:50:29;;;;;;;0.20;0.20;;;5.90;99.90;;;;;;4983986;28;20030;-76
2023/03/27 10:53:01;;;;;;;0.20;0.20;;;5.80;99.90;;;;;;4977253;28;20050;-76
2023/03/27 10:55:50;;;;;;;0.10;0.10;;;6.00;99.90;;;;;;4977133;28;20041;-76
2023/03/27 10:58:22;;;;;;;0.20;0.20;;;6.10;99.90;;;;;;4986852;28;20030;-77
2023/03/27 11:01:17;;;;;;;0.20;0.20;;;6.30;99.90;;;;;;4986454;28;20029;-77
2023/03/27 11:03:55;;;;;;;0.10;0.10;;;6.60;99.90;;;;;;4984694;28;20085;-77
2023/03/27 11:06:26;;;;;;;0.20;0.20;;;6.40;99.90;;;;;;4994396;28;20391;-77
2023/03/27 11:09:14;;;;;;;0.10;0.10;;;6.50;99.90;;;;;;4995097;28;20531;-77
2023/03/27 11:11:47;;;;;;;0.20;0.20;;;6.70;99.90;;;;;;4984613;28;20053;-77
2023/03/27 11:14:23;;;;;;;0.17;0.17;;;6.70;99.90;;;;;;4994696;28;20014;-77
2023/03/27 11:16:57;;;;;;;0.20;0.20;;;6.50;99.90;;;;;;4995497;28;20026;-77
2023/03/27 11:19:55;;;;;;;0.15;0.15;;;6.10;99.90;;;;;;4997873;28;20022;-77
2023/03/27 11:22:27;;;;;;;0.30;0.30;;;5.70;99.90;;;;;;4996997;28;20046;-77
2023/03/27 11:25:02;;;;;;;0.20;0.20;;;4.80;99.90;;;;;;5037728;23;20133;-77
2023/03/27 11:27:38;;;;;;;0.20;0.20;;;4.30;99.90;;;;;;5020548;28;20013;-77
2023/03/27 11:30:07;;;;;;;0.10;0.10;;;3.90;99.90;;;;;;5016955;28;20022;-77
2023/03/27 11:33:03;;;;;;;0.20;0.20;;;3.70;99.90;;;;;;5004333;28;20515;-77
2023/03/27 11:35:35;;;;;;;0.20;0.20;;;3.60;99.90;;;;;;4981170;28;20033;-77
2023/03/27 11:38:06;;;;;;;0.20;0.20;;;3.80;99.90;;;;;;4998140;28;20106;-77
2023/03/27 11:40:52;;;;;;;0.20;0.20;;;4.00;99.90;;;;;;4997086;28;20061;-76
2023/03/27 11:43:21;;;;;;;0.20;0.20;;;4.20;99.90;;;;;;5065143;23;20351;-77
2023/03/27 11:46:14;;;;;;;0.22;0.22;;;4.30;99.90;;;;;;5019222;28;20064;-77
2023/03/27 11:49:04;;;;;;;0.20;0.20;;;4.40;99.90;;;;;;5019084;28;20021;-77
2023/03/27 11:51:53;;;;;;;0.20;0.20;;;4.40;99.90;;;;;;5036548;28;20021;-76
2023/03/27 11:54:41;;;;;;;0.20;0.20;;;4.40;99.90;;;;;;5018540;28;20029;-76
2023/03/27 11:57:18;;;;;;;0.20;0.20;;;4.50;99.90;;;;;;5035716;28;20093;-76
2023/03/27 12:00:10;;;;;;;0.10;0.10;;;4.40;99.90;;;;;;5036284;28;20382;-76
2023/03/27 12:02:47;;;;;;;0.20;0.20;;;4.20;99.90;;;;;;5036141;28;20497;-77
2023/03/27 12:05:26;;;;;;;0.20;0.20;;;4.00;99.90;;;;;;5018287;28;20100;-77
2023/03/27 12:08:23;;;;;;;0.30;0.30;;;4.00;99.90;;;;;;5036535;28;20032;-77
2023/03/27 12:10:52;;;;;;;0.20;0.20;;;4.00;99.90;;;;;;5035999;28;20037;-77
2023/03/27 12:13:48;;;;;;;0.20;0.20;;;4.20;99.90;;;;;;5022006;23;20507;-77
2023/03/27 12:16:40;;;;;;;0.20;0.20;;;4.40;99.90;;;;;;5016462;28;20118;-77
2023/03/27 12:19:28;;;;;;;0.22;0.22;;;5.40;99.90;;;;;;5017499;28;20030;-77
2023/03/27 12:21:54;;;;;;;0.20;0.20;;;6.40;99.90;;;;;;5016525;28;20034;-78
2023/03/27 12:24:39;;;;;;;0.20;0.20;;;7.10;99.90;;;;;;5015568;28;20391;-77
2023/03/27 12:27:27;;;;;;;0.20;0.20;;;7.70;99.90;;;;;;5016084;28;20022;-77
2023/03/27 12:30:19;;;;;;;0.20;0.20;;;7.80;99.90;;;;;;5017430;28;20018;-77
2023/03/27 12:33:03;;;;;;;0.20;0.20;;;7.40;99.90;;;;;;5017000;28;20488;-77
2023/03/27 12:35:34;;;;;;;0.10;0.10;;;7.20;99.90;;;;;;5018365;28;20033;-78
2023/03/27 12:38:03;;;;;;;0.20;0.20;;;7.90;99.90;;;;;;5017885;28;20048;-77
2023/03/27 12:40:39;;;;;;;0.20;0.20;;;7.90;99.90;;;;;;5017668;28;20052;-77
2023/03/27 12:43:18;;;;;;;0.20;0.20;;;7.50;99.90;;;;;;5018859;28;20026;-78
2023/03/27 12:46:11;;;;;;;0.10;0.10;;;7.70;99.90;;;;;;5015702;28;20503;-77
2023/03/27 12:48:53;;;;;;;0.20;0.20;;;8.30;99.90;;;;;;5018342;28;20040;-77
2023/03/27 12:51:41;;;;;;;0.20;0.20;;;8.60;99.90;;;;;;5018364;28;20025;-77
2023/03/27 12:54:18;;;;;;;0.10;0.10;;;8.20;99.90;;;;;;5018305;28;20068;-77
2023/03/27 12:56:57;;;;;;;0.10;0.10;;;7.30;99.90;;;;;;5015270;28;20025;-77
2023/03/27 12:59:26;;;;;;;0.20;0.20;;;6.80;99.90;;;;;;5018189;28;20365;-77
2023/03/27 13:02:04;;;;;;;0.20;0.20;;;6.00;99.90;;;;;;5020046;28;20026;-77
2023/03/27 13:04:49;;;;;;;0.20;0.20;;;5.30;99.90;;;;;;5019081;28;20022;-77
2023/03/27 13:07:27;;;;;;;0.20;0.20;;;4.70;99.90;;;;;;5017932;28;20056;-78
2023/03/27 13:10:19;;;;;;;0.13;0.13;;;4.30;99.90;;;;;;5014535;28;20621;-77
2023/03/27 13:13:18;;;;;;;0.10;0.10;;;4.20;99.90;;;;;;5016497;28;20040;-77
2023/03/27 13:16:03;;;;;;;0.20;0.20;;;5.20;99.90;;;;;;5019253;28;20554;-77
2023/03/27 13:18:45;;;;;;;0.20;0.20;;;6.70;99.90;;;;;;5019893;28;20072;-78
2023/03/27 13:21:25;;;;;;;0.20;0.20;;;7.40;99.90;;;;;;5020449;28;20022;-77
2023/03/27 13:24:12;;;;;;;0.10;0.10;;;7.90;99.90;;;;;;5029370;23;20045;-78
2023/03/27 13:27:12;;;;;;;0.20;0.20;;;8.10;99.90;;;;;;5022750;28;20518;-78